Bookmark and Share
Track history (hours):
 

Hanjin Valencia

Last reported at 2014-Apr-13 17:31 UTC. Time now 2014-Apr-24 03:52 UTC.
Position N 01°13' E 103°40'.
Warning: this ship's position is 10 days out of date.

Length 290 m; draft 10.2 m.

Type: Cargo ship. MMSI: 357452000.

NotesDate/timePositionNaut miles runAvg speedWind from/ knotsBaromVisibWave heightAir tempDewpointWater temp
2014-Apr-13 17:31N 01°13' E 103°40'7 7.6
2014-Apr-13 16:33N 01°16' E 103°47'0 0.3
2014-Apr-13 15:30N 01°17' E 103°47'0 0.0
2014-Apr-13 14:30N 01°17' E 103°47'0 0.0
2014-Apr-13 13:30N 01°17' E 103°47'0 0.0
2014-Apr-13 12:24N 01°17' E 103°47'0 0.0
2014-Apr-13 11:24N 01°17' E 103°47'0 0.0
2014-Apr-13 10:28N 01°17' E 103°47'0 0.0
2014-Apr-13 09:22N 01°17' E 103°47'0 0.0
2014-Apr-13 08:28N 01°17' E 103°47'0 0.0
2014-Apr-13 07:28N 01°17' E 103°47'0 0.0
2014-Apr-13 06:28N 01°17' E 103°47'0 0.0
2014-Apr-13 05:29N 01°17' E 103°47'0 0.0
2014-Apr-13 04:29N 01°17' E 103°47'0 0.0
2014-Apr-13 03:29N 01°17' E 103°47'3 2.8
2014-Apr-13 02:31N 01°14' E 103°47'0 0.1
2014-Apr-13 01:31N 01°14' E 103°47'0 0.0
2014-Apr-12 23:22N 01°14' E 103°47'1 1.5
2014-Apr-12 22:32N 01°13' E 103°48'7 6.2
2014-Apr-12 21:21N 01°14' E 103°55'  
2014-Apr-07 12:27N 21°53' E 113°55'1313.7
2014-Apr-07 11:30N 22°03' E 114°03'1010.4
2014-Apr-07 10:33N 22°09' E 114°12'1312.8
2014-Apr-07 09:33N 22°20' E 114°05'1110.5
2014-Apr-07 08:33N 22°23' E 113°54'4 4.1
2014-Apr-07 07:33N 22°27' E 113°53'0 0.0
2014-Apr-07 06:26N 22°27' E 113°53'0 0.0
2014-Apr-07 05:33N 22°27' E 113°53'0 0.0
2014-Apr-07 04:15N 22°27' E 113°53'0 0.0
2014-Apr-07 03:33N 22°27' E 113°53'0 0.0
2014-Apr-07 02:15N 22°27' E 113°53'0 0.0
2014-Apr-07 01:33N 22°27' E 113°53'0 0.0
2014-Apr-07 00:33N 22°27' E 113°53'0 0.0
2014-Apr-06 22:27N 22°27' E 113°53'0 0.0
2014-Apr-06 21:27N 22°27' E 113°53'0 0.0
2014-Apr-06 20:13N 22°27' E 113°53'1 2.2
2014-Apr-06 19:33N 22°26' E 113°53'11 8.6
2014-Apr-06 18:14N 22°21' E 114°05'913.0
2014-Apr-06 17:31N 22°13' E 114°10'128 5.3
2014-Apr-05 17:29N 22°38' E 116°26'6 6.8
2014-Apr-05 16:32N 22°41' E 116°32'6 6.6
2014-Apr-05 15:33N 22°44' E 116°38'7 6.8
2014-Apr-05 14:33N 22°47' E 116°45'7 7.1
2014-Apr-05 13:33N 22°51' E 116°51'7 7.2
2014-Apr-05 12:33N 22°54' E 116°58'7 7.5
2014-Apr-05 11:33N 22°58' E 117°05'8 7.6
2014-Apr-05 10:33N 23°02' E 117°12'7 7.5
2014-Apr-05 09:33N 23°06' E 117°19'8 7.0
2014-Apr-05 08:28N 23°11' E 117°26'7 6.9
2014-Apr-05 07:23N 23°16' E 117°32'11 9.4
2014-Apr-05 06:12N 23°23' E 117°41'7 9.9
2014-Apr-05 05:31N 23°28' E 117°46'9 9.8
2014-Apr-05 04:33N 23°34' E 117°53'10 9.8
2014-Apr-05 03:33N 23°41' E 118°01'10 9.9
2014-Apr-05 02:34N 23°47' E 118°10'1110.3
2014-Apr-05 01:27N 23°54' E 118°20'1010.9
2014-Apr-05 00:33N 24°00' E 118°28'1211.6
2014-Apr-04 23:33N 24°08' E 118°37'1312.0
2014-Apr-04 22:29N 24°17' E 118°48'1212.0
2014-Apr-04 21:30N 24°25' E 118°57'1111.7
2014-Apr-04 20:33N 24°31' E 119°07'1211.7
2014-Apr-04 19:33N 24°39' E 119°17'1311.2
2014-Apr-04 18:21N 24°48' E 119°28'1410.8
2014-Apr-04 17:04N 24°56' E 119°40'  

Dump ship's entire track history

sailing weather and tide predictions

Hanjin Valencia — 3FSR7 — position and weather